sensor_id;sensor_type;location;lat;lon;timestamp;P1;durP1;ratioP1;P2;durP2;ratioP2
17177;SDS011;8704;52.006;4.374;2024-01-30T00:01:08;66.70;;;62.60;;
17177;SDS011;8704;52.006;4.374;2024-01-30T00:03:37;72.55;;;68.05;;
17177;SDS011;8704;52.006;4.374;2024-01-30T00:06:06;64.55;;;60.35;;
17177;SDS011;8704;52.006;4.374;2024-01-30T00:08:35;69.10;;;65.05;;
17177;SDS011;8704;52.006;4.374;2024-01-30T00:11:03;69.82;;;65.50;;
17177;SDS011;8704;52.006;4.374;2024-01-30T00:13:31;74.18;;;69.28;;
17177;SDS011;8704;52.006;4.374;2024-01-30T00:16:01;79.40;;;74.53;;
17177;SDS011;8704;52.006;4.374;2024-01-30T00:18:30;77.30;;;72.93;;
17177;SDS011;8704;52.006;4.374;2024-01-30T00:20:58;73.00;;;68.40;;
17177;SDS011;8704;52.006;4.374;2024-01-30T00:23:26;76.07;;;71.50;;
17177;SDS011;8704;52.006;4.374;2024-01-30T00:25:54;74.18;;;69.68;;
17177;SDS011;8704;52.006;4.374;2024-01-30T00:28:23;71.13;;;66.70;;
17177;SDS011;8704;52.006;4.374;2024-01-30T00:30:51;71.10;;;66.65;;
17177;SDS011;8704;52.006;4.374;2024-01-30T00:33:21;71.35;;;66.85;;
17177;SDS011;8704;52.006;4.374;2024-01-30T00:35:49;71.45;;;67.07;;
17177;SDS011;8704;52.006;4.374;2024-01-30T00:38:17;71.38;;;67.03;;
17177;SDS011;8704;52.006;4.374;2024-01-30T00:40:45;73.00;;;68.35;;
17177;SDS011;8704;52.006;4.374;2024-01-30T00:43:13;74.07;;;69.55;;
17177;SDS011;8704;52.006;4.374;2024-01-30T00:45:41;70.47;;;65.97;;
17177;SDS011;8704;52.006;4.374;2024-01-30T00:48:10;75.35;;;71.05;;
17177;SDS011;8704;52.006;4.374;2024-01-30T00:50:40;71.22;;;66.93;;
17177;SDS011;8704;52.006;4.374;2024-01-30T00:53:08;67.53;;;63.15;;
17177;SDS011;8704;52.006;4.374;2024-01-30T00:55:36;69.55;;;65.40;;
17177;SDS011;8704;52.006;4.374;2024-01-30T00:58:04;66.85;;;62.83;;
17177;SDS011;8704;52.006;4.374;2024-01-30T01:00:32;72.60;;;68.30;;
17177;SDS011;8704;52.006;4.374;2024-01-30T01:03:00;73.40;;;69.10;;
17177;SDS011;8704;52.006;4.374;2024-01-30T01:05:29;74.97;;;70.38;;
17177;SDS011;8704;52.006;4.374;2024-01-30T01:07:58;69.43;;;65.18;;
17177;SDS011;8704;52.006;4.374;2024-01-30T01:10:28;68.38;;;64.18;;
17177;SDS011;8704;52.006;4.374;2024-01-30T01:12:57;65.68;;;61.72;;
17177;SDS011;8704;52.006;4.374;2024-01-30T01:15:25;65.00;;;60.88;;
17177;SDS011;8704;52.006;4.374;2024-01-30T01:17:55;65.72;;;61.65;;
17177;SDS011;8704;52.006;4.374;2024-01-30T01:20:24;62.00;;;58.05;;
17177;SDS011;8704;52.006;4.374;2024-01-30T01:22:52;59.35;;;55.53;;
17177;SDS011;8704;52.006;4.374;2024-01-30T01:25:22;59.40;;;55.70;;
17177;SDS011;8704;52.006;4.374;2024-01-30T01:27:50;56.58;;;53.03;;
17177;SDS011;8704;52.006;4.374;2024-01-30T01:30:19;55.78;;;52.28;;
17177;SDS011;8704;52.006;4.374;2024-01-30T01:32:48;53.95;;;50.55;;
17177;SDS011;8704;52.006;4.374;2024-01-30T01:35:21;54.08;;;50.60;;
17177;SDS011;8704;52.006;4.374;2024-01-30T01:37:51;54.13;;;50.60;;
17177;SDS011;8704;52.006;4.374;2024-01-30T01:40:25;54.80;;;50.90;;
17177;SDS011;8704;52.006;4.374;2024-01-30T01:42:55;54.78;;;51.17;;
17177;SDS011;8704;52.006;4.374;2024-01-30T01:45:23;50.50;;;47.30;;
17177;SDS011;8704;52.006;4.374;2024-01-30T01:47:51;52.17;;;48.85;;
17177;SDS011;8704;52.006;4.374;2024-01-30T01:50:20;54.38;;;51.00;;
17177;SDS011;8704;52.006;4.374;2024-01-30T01:52:50;50.40;;;47.20;;
17177;SDS011;8704;52.006;4.374;2024-01-30T01:55:19;50.08;;;46.67;;
17177;SDS011;8704;52.006;4.374;2024-01-30T01:57:52;47.30;;;44.17;;
17177;SDS011;8704;52.006;4.374;2024-01-30T02:00:21;50.28;;;46.78;;
17177;SDS011;8704;52.006;4.374;2024-01-30T02:02:49;52.33;;;48.50;;
17177;SDS011;8704;52.006;4.374;2024-01-30T02:05:18;48.08;;;44.88;;
17177;SDS011;8704;52.006;4.374;2024-01-30T02:07:46;46.05;;;42.95;;
17177;SDS011;8704;52.006;4.374;2024-01-30T02:10:15;48.42;;;45.15;;
17177;SDS011;8704;52.006;4.374;2024-01-30T02:12:43;49.40;;;46.17;;
17177;SDS011;8704;52.006;4.374;2024-01-30T02:15:14;44.47;;;41.38;;
17177;SDS011;8704;52.006;4.374;2024-01-30T02:17:42;44.50;;;41.33;;
17177;SDS011;8704;52.006;4.374;2024-01-30T02:20:11;44.28;;;41.05;;
17177;SDS011;8704;52.006;4.374;2024-01-30T02:22:41;42.10;;;39.08;;
17177;SDS011;8704;52.006;4.374;2024-01-30T02:25:10;41.63;;;38.53;;
17177;SDS011;8704;52.006;4.374;2024-01-30T02:27:38;40.13;;;37.22;;
17177;SDS011;8704;52.006;4.374;2024-01-30T02:30:07;39.90;;;37.20;;
17177;SDS011;8704;52.006;4.374;2024-01-30T02:32:35;41.25;;;38.38;;
17177;SDS011;8704;52.006;4.374;2024-01-30T02:35:04;40.42;;;37.72;;
17177;SDS011;8704;52.006;4.374;2024-01-30T02:37:32;39.90;;;37.05;;
17177;SDS011;8704;52.006;4.374;2024-01-30T02:40:01;40.75;;;37.83;;
17177;SDS011;8704;52.006;4.374;2024-01-30T02:42:30;40.08;;;36.97;;
17177;SDS011;8704;52.006;4.374;2024-01-30T02:44:58;38.40;;;35.60;;
17177;SDS011;8704;52.006;4.374;2024-01-30T02:47:26;38.25;;;35.35;;
17177;SDS011;8704;52.006;4.374;2024-01-30T02:49:54;38.17;;;35.50;;
17177;SDS011;8704;52.006;4.374;2024-01-30T02:52:23;37.70;;;35.10;;
17177;SDS011;8704;52.006;4.374;2024-01-30T02:54:51;37.58;;;34.95;;
17177;SDS011;8704;52.006;4.374;2024-01-30T02:57:21;40.47;;;37.47;;
17177;SDS011;8704;52.006;4.374;2024-01-30T02:59:49;40.08;;;36.83;;
17177;SDS011;8704;52.006;4.374;2024-01-30T03:02:17;41.55;;;38.53;;
17177;SDS011;8704;52.006;4.374;2024-01-30T03:04:45;39.40;;;36.75;;
17177;SDS011;8704;52.006;4.374;2024-01-30T03:07:14;38.45;;;35.55;;
17177;SDS011;8704;52.006;4.374;2024-01-30T03:09:42;41.13;;;38.38;;
17177;SDS011;8704;52.006;4.374;2024-01-30T03:12:10;40.38;;;37.47;;
17177;SDS011;8704;52.006;4.374;2024-01-30T03:14:40;39.88;;;37.15;;
17177;SDS011;8704;52.006;4.374;2024-01-30T03:17:08;39.50;;;36.70;;
17177;SDS011;8704;52.006;4.374;2024-01-30T03:19:36;40.38;;;37.67;;
17177;SDS011;8704;52.006;4.374;2024-01-30T03:22:05;38.03;;;35.53;;
17177;SDS011;8704;52.006;4.374;2024-01-30T03:24:33;43.42;;;40.40;;
17177;SDS011;8704;52.006;4.374;2024-01-30T03:27:01;41.15;;;38.25;;
17177;SDS011;8704;52.006;4.374;2024-01-30T03:29:29;42.97;;;40.28;;
17177;SDS011;8704;52.006;4.374;2024-01-30T03:31:59;40.85;;;37.85;;
17177;SDS011;8704;52.006;4.374;2024-01-30T03:34:27;40.15;;;37.35;;
17177;SDS011;8704;52.006;4.374;2024-01-30T03:36:55;41.08;;;38.30;;
17177;SDS011;8704;52.006;4.374;2024-01-30T03:39:24;43.42;;;40.35;;
17177;SDS011;8704;52.006;4.374;2024-01-30T03:41:52;40.58;;;37.75;;
17177;SDS011;8704;52.006;4.374;2024-01-30T03:44:20;43.05;;;40.20;;
17177;SDS011;8704;52.006;4.374;2024-01-30T03:46:48;42.53;;;39.45;;
17177;SDS011;8704;52.006;4.374;2024-01-30T03:49:18;39.88;;;37.08;;
17177;SDS011;8704;52.006;4.374;2024-01-30T03:51:46;39.30;;;36.50;;
17177;SDS011;8704;52.006;4.374;2024-01-30T03:54:15;45.63;;;42.55;;
17177;SDS011;8704;52.006;4.374;2024-01-30T03:56:43;41.58;;;38.55;;
17177;SDS011;8704;52.006;4.374;2024-01-30T03:59:11;42.28;;;38.97;;
17177;SDS011;8704;52.006;4.374;2024-01-30T04:01:39;39.92;;;37.35;;
17177;SDS011;8704;52.006;4.374;2024-01-30T04:04:07;39.95;;;37.10;;
17177;SDS011;8704;52.006;4.374;2024-01-30T04:06:37;40.83;;;38.00;;
17177;SDS011;8704;52.006;4.374;2024-01-30T04:09:05;36.58;;;33.92;;
17177;SDS011;8704;52.006;4.374;2024-01-30T04:11:33;39.90;;;37.10;;
17177;SDS011;8704;52.006;4.374;2024-01-30T04:14:02;41.47;;;38.42;;
17177;SDS011;8704;52.006;4.374;2024-01-30T04:16:30;37.75;;;35.20;;
17177;SDS011;8704;52.006;4.374;2024-01-30T04:18:58;37.60;;;34.88;;
17177;SDS011;8704;52.006;4.374;2024-01-30T04:21:26;37.88;;;35.30;;
17177;SDS011;8704;52.006;4.374;2024-01-30T04:23:55;39.88;;;36.97;;
17177;SDS011;8704;52.006;4.374;2024-01-30T04:26:24;37.33;;;34.60;;
17177;SDS011;8704;52.006;4.374;2024-01-30T04:28:52;39.08;;;36.15;;
17177;SDS011;8704;52.006;4.374;2024-01-30T04:31:20;39.45;;;36.75;;
17177;SDS011;8704;52.006;4.374;2024-01-30T04:33:48;37.97;;;35.30;;
17177;SDS011;8704;52.006;4.374;2024-01-30T04:36:16;42.15;;;39.28;;
17177;SDS011;8704;52.006;4.374;2024-01-30T04:38:45;37.97;;;35.25;;
17177;SDS011;8704;52.006;4.374;2024-01-30T04:41:14;37.92;;;35.30;;
17177;SDS011;8704;52.006;4.374;2024-01-30T04:43:42;41.35;;;38.55;;
17177;SDS011;8704;52.006;4.374;2024-01-30T04:46:10;40.47;;;37.63;;
17177;SDS011;8704;52.006;4.374;2024-01-30T04:48:38;37.92;;;35.22;;
17177;SDS011;8704;52.006;4.374;2024-01-30T04:51:07;39.95;;;37.28;;
17177;SDS011;8704;52.006;4.374;2024-01-30T04:53:35;37.45;;;34.60;;
17177;SDS011;8704;52.006;4.374;2024-01-30T04:56:04;37.20;;;34.60;;
17177;SDS011;8704;52.006;4.374;2024-01-30T04:58:34;37.80;;;35.17;;
17177;SDS011;8704;52.006;4.374;2024-01-30T05:01:03;38.20;;;35.13;;
17177;SDS011;8704;52.006;4.374;2024-01-30T05:03:32;40.17;;;37.20;;
17177;SDS011;8704;52.006;4.374;2024-01-30T05:06:01;38.63;;;35.92;;
17177;SDS011;8704;52.006;4.374;2024-01-30T05:08:29;38.53;;;35.83;;
17177;SDS011;8704;52.006;4.374;2024-01-30T05:10:59;41.03;;;38.10;;
17177;SDS011;8704;52.006;4.374;2024-01-30T05:13:27;40.00;;;37.00;;
17177;SDS011;8704;52.006;4.374;2024-01-30T05:15:57;39.35;;;36.47;;
17177;SDS011;8704;52.006;4.374;2024-01-30T05:18:25;37.67;;;34.97;;
17177;SDS011;8704;52.006;4.374;2024-01-30T05:20:53;39.42;;;36.40;;
17177;SDS011;8704;52.006;4.374;2024-01-30T05:23:21;38.90;;;36.00;;
17177;SDS011;8704;52.006;4.374;2024-01-30T05:25:49;37.40;;;34.67;;
17177;SDS011;8704;52.006;4.374;2024-01-30T05:28:18;36.47;;;33.88;;
17177;SDS011;8704;52.006;4.374;2024-01-30T05:30:46;35.95;;;32.92;;
17177;SDS011;8704;52.006;4.374;2024-01-30T05:33:15;36.30;;;33.63;;
17177;SDS011;8704;52.006;4.374;2024-01-30T05:35:44;37.10;;;34.08;;
17177;SDS011;8704;52.006;4.374;2024-01-30T05:38:12;36.80;;;34.17;;
17177;SDS011;8704;52.006;4.374;2024-01-30T05:40:40;35.67;;;32.88;;
17177;SDS011;8704;52.006;4.374;2024-01-30T05:43:08;33.20;;;30.80;;
17177;SDS011;8704;52.006;4.374;2024-01-30T05:45:36;34.60;;;32.10;;
17177;SDS011;8704;52.006;4.374;2024-01-30T05:48:04;34.38;;;31.80;;
17177;SDS011;8704;52.006;4.374;2024-01-30T05:50:34;34.95;;;32.55;;
17177;SDS011;8704;52.006;4.374;2024-01-30T05:53:02;36.38;;;33.70;;
17177;SDS011;8704;52.006;4.374;2024-01-30T05:55:31;36.60;;;33.88;;
17177;SDS011;8704;52.006;4.374;2024-01-30T05:58:00;34.47;;;31.90;;
17177;SDS011;8704;52.006;4.374;2024-01-30T06:00:28;36.92;;;34.00;;
17177;SDS011;8704;52.006;4.374;2024-01-30T06:02:56;36.85;;;34.08;;
17177;SDS011;8704;52.006;4.374;2024-01-30T06:05:24;36.22;;;33.33;;
17177;SDS011;8704;52.006;4.374;2024-01-30T06:07:53;35.63;;;32.85;;
17177;SDS011;8704;52.006;4.374;2024-01-30T06:10:22;35.78;;;32.97;;
17177;SDS011;8704;52.006;4.374;2024-01-30T06:12:50;37.50;;;34.50;;
17177;SDS011;8704;52.006;4.374;2024-01-30T06:15:18;36.65;;;34.00;;
17177;SDS011;8704;52.006;4.374;2024-01-30T06:17:47;34.58;;;31.63;;
17177;SDS011;8704;52.006;4.374;2024-01-30T06:20:15;34.45;;;31.75;;
17177;SDS011;8704;52.006;4.374;2024-01-30T06:22:44;38.20;;;35.50;;
17177;SDS011;8704;52.006;4.374;2024-01-30T06:25:13;36.97;;;33.83;;
17177;SDS011;8704;52.006;4.374;2024-01-30T06:27:43;36.50;;;34.03;;
17177;SDS011;8704;52.006;4.374;2024-01-30T06:30:11;36.97;;;34.10;;
17177;SDS011;8704;52.006;4.374;2024-01-30T06:32:40;36.95;;;33.90;;
17177;SDS011;8704;52.006;4.374;2024-01-30T06:35:08;36.05;;;33.08;;
17177;SDS011;8704;52.006;4.374;2024-01-30T06:37:37;38.65;;;35.67;;
17177;SDS011;8704;52.006;4.374;2024-01-30T06:40:05;39.78;;;36.97;;
17177;SDS011;8704;52.006;4.374;2024-01-30T06:42:36;36.33;;;33.63;;
17177;SDS011;8704;52.006;4.374;2024-01-30T06:45:04;37.50;;;34.35;;
17177;SDS011;8704;52.006;4.374;2024-01-30T06:47:34;35.58;;;32.80;;
17177;SDS011;8704;52.006;4.374;2024-01-30T06:50:02;35.75;;;32.90;;
17177;SDS011;8704;52.006;4.374;2024-01-30T06:52:31;35.75;;;33.08;;
17177;SDS011;8704;52.006;4.374;2024-01-30T06:54:59;34.63;;;32.05;;
17177;SDS011;8704;52.006;4.374;2024-01-30T06:57:27;36.97;;;34.28;;
17177;SDS011;8704;52.006;4.374;2024-01-30T06:59:58;35.45;;;32.90;;
17177;SDS011;8704;52.006;4.374;2024-01-30T07:02:26;35.67;;;32.28;;
17177;SDS011;8704;52.006;4.374;2024-01-30T07:04:54;36.45;;;33.13;;
17177;SDS011;8704;52.006;4.374;2024-01-30T07:07:22;35.88;;;32.72;;
17177;SDS011;8704;52.006;4.374;2024-01-30T07:09:51;35.60;;;32.90;;
17177;SDS011;8704;52.006;4.374;2024-01-30T07:12:23;35.83;;;32.92;;
17177;SDS011;8704;52.006;4.374;2024-01-30T07:14:52;35.22;;;32.47;;
17177;SDS011;8704;52.006;4.374;2024-01-30T07:17:23;34.15;;;31.27;;
17177;SDS011;8704;52.006;4.374;2024-01-30T07:19:51;32.38;;;29.88;;
17177;SDS011;8704;52.006;4.374;2024-01-30T07:22:19;34.30;;;31.27;;
17177;SDS011;8704;52.006;4.374;2024-01-30T07:24:47;33.90;;;31.20;;
17177;SDS011;8704;52.006;4.374;2024-01-30T07:27:17;32.67;;;30.33;;
17177;SDS011;8704;52.006;4.374;2024-01-30T07:29:45;34.40;;;31.58;;
17177;SDS011;8704;52.006;4.374;2024-01-30T07:32:13;33.10;;;30.33;;
17177;SDS011;8704;52.006;4.374;2024-01-30T07:34:42;32.03;;;29.23;;
17177;SDS011;8704;52.006;4.374;2024-01-30T07:37:28;33.60;;;30.65;;
17177;SDS011;8704;52.006;4.374;2024-01-30T07:39:56;35.08;;;32.28;;
17177;SDS011;8704;52.006;4.374;2024-01-30T07:42:24;34.35;;;31.52;;
17177;SDS011;8704;52.006;4.374;2024-01-30T07:44:52;32.17;;;29.48;;
17177;SDS011;8704;52.006;4.374;2024-01-30T07:47:20;34.25;;;30.83;;
17177;SDS011;8704;52.006;4.374;2024-01-30T07:49:50;35.20;;;32.17;;
17177;SDS011;8704;52.006;4.374;2024-01-30T07:52:19;34.17;;;31.50;;
17177;SDS011;8704;52.006;4.374;2024-01-30T07:54:50;34.35;;;31.73;;
17177;SDS011;8704;52.006;4.374;2024-01-30T07:57:19;34.03;;;31.15;;
17177;SDS011;8704;52.006;4.374;2024-01-30T07:59:47;33.60;;;30.75;;
17177;SDS011;8704;52.006;4.374;2024-01-30T08:02:15;33.70;;;30.73;;
17177;SDS011;8704;52.006;4.374;2024-01-30T08:04:43;32.97;;;30.15;;
17177;SDS011;8704;52.006;4.374;2024-01-30T08:07:16;33.57;;;30.93;;
17177;SDS011;8704;52.006;4.374;2024-01-30T08:09:45;34.53;;;31.17;;
17177;SDS011;8704;52.006;4.374;2024-01-30T08:12:13;35.13;;;32.03;;
17177;SDS011;8704;52.006;4.374;2024-01-30T08:14:41;31.65;;;28.75;;
17177;SDS011;8704;52.006;4.374;2024-01-30T08:17:09;32.58;;;29.90;;
17177;SDS011;8704;52.006;4.374;2024-01-30T08:19:37;33.08;;;30.13;;
17177;SDS011;8704;52.006;4.374;2024-01-30T08:22:05;32.33;;;29.38;;
17177;SDS011;8704;52.006;4.374;2024-01-30T08:24:37;32.88;;;30.17;;
17177;SDS011;8704;52.006;4.374;2024-01-30T08:27:06;32.75;;;29.77;;
17177;SDS011;8704;52.006;4.374;2024-01-30T08:29:35;33.05;;;30.15;;
17177;SDS011;8704;52.006;4.374;2024-01-30T08:32:04;33.33;;;30.45;;
17177;SDS011;8704;52.006;4.374;2024-01-30T08:34:33;32.92;;;30.42;;
17177;SDS011;8704;52.006;4.374;2024-01-30T08:37:01;30.27;;;27.63;;
17177;SDS011;8704;52.006;4.374;2024-01-30T08:39:30;30.75;;;28.13;;
17177;SDS011;8704;52.006;4.374;2024-01-30T08:41:59;30.60;;;27.80;;
17177;SDS011;8704;52.006;4.374;2024-01-30T08:44:27;29.77;;;26.95;;
17177;SDS011;8704;52.006;4.374;2024-01-30T08:46:56;30.02;;;27.52;;
17177;SDS011;8704;52.006;4.374;2024-01-30T08:49:26;31.05;;;27.98;;
17177;SDS011;8704;52.006;4.374;2024-01-30T08:51:54;30.15;;;27.52;;
17177;SDS011;8704;52.006;4.374;2024-01-30T08:54:22;29.55;;;26.55;;
17177;SDS011;8704;52.006;4.374;2024-01-30T08:56:51;28.85;;;26.25;;
17177;SDS011;8704;52.006;4.374;2024-01-30T08:59:21;27.77;;;25.48;;
17177;SDS011;8704;52.006;4.374;2024-01-30T09:01:49;26.02;;;23.60;;
17177;SDS011;8704;52.006;4.374;2024-01-30T09:04:32;29.10;;;26.58;;
17177;SDS011;8704;52.006;4.374;2024-01-30T09:07:00;26.45;;;24.15;;
17177;SDS011;8704;52.006;4.374;2024-01-30T09:09:29;24.10;;;20.35;;
17177;SDS011;8704;52.006;4.374;2024-01-30T09:11:57;18.77;;;16.88;;
17177;SDS011;8704;52.006;4.374;2024-01-30T09:14:32;18.85;;;16.92;;
17177;SDS011;8704;52.006;4.374;2024-01-30T09:17:00;20.17;;;17.58;;
17177;SDS011;8704;52.006;4.374;2024-01-30T09:19:29;18.90;;;17.13;;
17177;SDS011;8704;52.006;4.374;2024-01-30T09:21:58;19.58;;;17.27;;
17177;SDS011;8704;52.006;4.374;2024-01-30T09:24:26;19.42;;;17.08;;
17177;SDS011;8704;52.006;4.374;2024-01-30T09:26:55;18.85;;;15.35;;
17177;SDS011;8704;52.006;4.374;2024-01-30T09:29:23;17.33;;;15.00;;
17177;SDS011;8704;52.006;4.374;2024-01-30T09:31:53;22.98;;;16.92;;
17177;SDS011;8704;52.006;4.374;2024-01-30T09:34:21;17.58;;;13.75;;
17177;SDS011;8704;52.006;4.374;2024-01-30T09:36:49;17.02;;;13.73;;
17177;SDS011;8704;52.006;4.374;2024-01-30T09:39:18;19.35;;;12.65;;
17177;SDS011;8704;52.006;4.374;2024-01-30T09:41:48;14.23;;;10.00;;
17177;SDS011;8704;52.006;4.374;2024-01-30T09:44:19;21.13;;;8.60;;
17177;SDS011;8704;52.006;4.374;2024-01-30T09:46:48;13.63;;;8.23;;
17177;SDS011;8704;52.006;4.374;2024-01-30T09:49:19;11.55;;;8.00;;
17177;SDS011;8704;52.006;4.374;2024-01-30T09:51:48;14.32;;;6.88;;
17177;SDS011;8704;52.006;4.374;2024-01-30T09:54:17;11.85;;;6.43;;
17177;SDS011;8704;52.006;4.374;2024-01-30T09:56:47;12.50;;;6.80;;
17177;SDS011;8704;52.006;4.374;2024-01-30T09:59:15;8.77;;;6.80;;
17177;SDS011;8704;52.006;4.374;2024-01-30T10:01:43;11.07;;;7.10;;
17177;SDS011;8704;52.006;4.374;2024-01-30T10:04:12;7.15;;;5.88;;
17177;SDS011;8704;52.006;4.374;2024-01-30T10:06:42;14.13;;;5.85;;
17177;SDS011;8704;52.006;4.374;2024-01-30T10:09:10;13.13;;;6.68;;
17177;SDS011;8704;52.006;4.374;2024-01-30T10:11:39;14.23;;;6.53;;
17177;SDS011;8704;52.006;4.374;2024-01-30T10:14:07;12.80;;;6.45;;
17177;SDS011;8704;52.006;4.374;2024-01-30T10:16:35;9.77;;;6.18;;
17177;SDS011;8704;52.006;4.374;2024-01-30T10:19:03;9.57;;;5.22;;
17177;SDS011;8704;52.006;4.374;2024-01-30T10:21:32;10.38;;;5.68;;
17177;SDS011;8704;52.006;4.374;2024-01-30T10:24:01;10.10;;;5.45;;
17177;SDS011;8704;52.006;4.374;2024-01-30T10:26:29;11.20;;;4.90;;
17177;SDS011;8704;52.006;4.374;2024-01-30T10:29:00;10.05;;;5.05;;
17177;SDS011;8704;52.006;4.374;2024-01-30T10:31:29;12.38;;;5.97;;
17177;SDS011;8704;52.006;4.374;2024-01-30T10:33:57;8.30;;;5.93;;
17177;SDS011;8704;52.006;4.374;2024-01-30T10:36:41;10.95;;;6.22;;
17177;SDS011;8704;52.006;4.374;2024-01-30T10:39:15;10.65;;;5.88;;
17177;SDS011;8704;52.006;4.374;2024-01-30T10:41:45;11.05;;;6.10;;
17177;SDS011;8704;52.006;4.374;2024-01-30T10:44:17;8.68;;;6.05;;
17177;SDS011;8704;52.006;4.374;2024-01-30T10:46:48;12.27;;;6.25;;
17177;SDS011;8704;52.006;4.374;2024-01-30T10:49:22;14.15;;;6.93;;
17177;SDS011;8704;52.006;4.374;2024-01-30T10:51:51;12.50;;;8.00;;
17177;SDS011;8704;52.006;4.374;2024-01-30T10:54:21;12.85;;;8.65;;
17177;SDS011;8704;52.006;4.374;2024-01-30T10:56:52;15.43;;;10.55;;
17177;SDS011;8704;52.006;4.374;2024-01-30T10:59:21;15.95;;;8.77;;
17177;SDS011;8704;52.006;4.374;2024-01-30T11:01:51;10.32;;;8.45;;
17177;SDS011;8704;52.006;4.374;2024-01-30T11:04:20;15.77;;;10.60;;
17177;SDS011;8704;52.006;4.374;2024-01-30T11:06:49;15.15;;;11.50;;
17177;SDS011;8704;52.006;4.374;2024-01-30T11:09:17;13.60;;;9.43;;
17177;SDS011;8704;52.006;4.374;2024-01-30T11:11:51;14.38;;;10.20;;
17177;SDS011;8704;52.006;4.374;2024-01-30T11:14:26;13.50;;;9.93;;
17177;SDS011;8704;52.006;4.374;2024-01-30T11:16:57;18.15;;;10.52;;
17177;SDS011;8704;52.006;4.374;2024-01-30T11:19:25;15.50;;;11.15;;
17177;SDS011;8704;52.006;4.374;2024-01-30T11:21:55;15.32;;;9.98;;
17177;SDS011;8704;52.006;4.374;2024-01-30T11:24:24;16.02;;;8.82;;
17177;SDS011;8704;52.006;4.374;2024-01-30T11:26:56;12.82;;;10.85;;
17177;SDS011;8704;52.006;4.374;2024-01-30T11:29:25;15.70;;;10.30;;
17177;SDS011;8704;52.006;4.374;2024-01-30T11:31:55;17.33;;;9.20;;
17177;SDS011;8704;52.006;4.374;2024-01-30T11:34:25;12.10;;;8.95;;
17177;SDS011;8704;52.006;4.374;2024-01-30T11:36:55;11.82;;;8.90;;
17177;SDS011;8704;52.006;4.374;2024-01-30T11:41:54;9.75;;;6.93;;
17177;SDS011;8704;52.006;4.374;2024-01-30T11:44:24;13.25;;;9.25;;
17177;SDS011;8704;52.006;4.374;2024-01-30T11:46:52;13.30;;;7.30;;
17177;SDS011;8704;52.006;4.374;2024-01-30T11:49:20;11.50;;;6.78;;
17177;SDS011;8704;52.006;4.374;2024-01-30T11:51:48;15.23;;;7.35;;
17177;SDS011;8704;52.006;4.374;2024-01-30T11:54:17;14.00;;;7.35;;
17177;SDS011;8704;52.006;4.374;2024-01-30T11:56:45;16.65;;;7.22;;
17177;SDS011;8704;52.006;4.374;2024-01-30T11:59:13;10.55;;;6.28;;
17177;SDS011;8704;52.006;4.374;2024-01-30T12:01:43;12.70;;;7.97;;
17177;SDS011;8704;52.006;4.374;2024-01-30T12:04:14;12.85;;;7.55;;
17177;SDS011;8704;52.006;4.374;2024-01-30T12:06:43;14.18;;;8.48;;
17177;SDS011;8704;52.006;4.374;2024-01-30T12:09:11;11.18;;;7.15;;
17177;SDS011;8704;52.006;4.374;2024-01-30T12:11:43;12.98;;;6.95;;
17177;SDS011;8704;52.006;4.374;2024-01-30T12:14:12;15.23;;;7.90;;
17177;SDS011;8704;52.006;4.374;2024-01-30T12:16:40;15.27;;;8.82;;
17177;SDS011;8704;52.006;4.374;2024-01-30T12:19:10;15.68;;;9.15;;
17177;SDS011;8704;52.006;4.374;2024-01-30T12:21:38;13.38;;;9.10;;
17177;SDS011;8704;52.006;4.374;2024-01-30T12:24:06;16.38;;;9.90;;
17177;SDS011;8704;52.006;4.374;2024-01-30T12:26:34;14.68;;;10.75;;
17177;SDS011;8704;52.006;4.374;2024-01-30T12:29:03;13.10;;;9.57;;
17177;SDS011;8704;52.006;4.374;2024-01-30T12:31:32;16.83;;;9.88;;
17177;SDS011;8704;52.006;4.374;2024-01-30T12:34:02;17.17;;;9.18;;
17177;SDS011;8704;52.006;4.374;2024-01-30T12:36:30;13.95;;;9.38;;
17177;SDS011;8704;52.006;4.374;2024-01-30T12:38:58;14.30;;;9.68;;
17177;SDS011;8704;52.006;4.374;2024-01-30T12:41:27;13.10;;;10.25;;
17177;SDS011;8704;52.006;4.374;2024-01-30T12:43:56;14.95;;;11.55;;
17177;SDS011;8704;52.006;4.374;2024-01-30T12:46:26;17.42;;;12.80;;
17177;SDS011;8704;52.006;4.374;2024-01-30T12:48:56;15.60;;;12.25;;
17177;SDS011;8704;52.006;4.374;2024-01-30T12:51:25;15.10;;;13.70;;
17177;SDS011;8704;52.006;4.374;2024-01-30T12:53:53;17.45;;;15.60;;
17177;SDS011;8704;52.006;4.374;2024-01-30T12:56:22;16.38;;;12.93;;
17177;SDS011;8704;52.006;4.374;2024-01-30T12:58:50;15.20;;;13.77;;
17177;SDS011;8704;52.006;4.374;2024-01-30T13:01:21;17.58;;;14.23;;
17177;SDS011;8704;52.006;4.374;2024-01-30T13:03:49;18.52;;;15.18;;
17177;SDS011;8704;52.006;4.374;2024-01-30T13:06:17;18.08;;;16.23;;
17177;SDS011;8704;52.006;4.374;2024-01-30T13:08:47;19.33;;;17.67;;
17177;SDS011;8704;52.006;4.374;2024-01-30T13:11:15;20.77;;;18.80;;
17177;SDS011;8704;52.006;4.374;2024-01-30T13:13:47;22.37;;;20.13;;
17177;SDS011;8704;52.006;4.374;2024-01-30T13:16:15;21.65;;;19.73;;
17177;SDS011;8704;52.006;4.374;2024-01-30T13:18:43;21.92;;;19.85;;
17177;SDS011;8704;52.006;4.374;2024-01-30T13:21:12;22.55;;;20.75;;
17177;SDS011;8704;52.006;4.374;2024-01-30T13:23:40;23.33;;;20.95;;
17177;SDS011;8704;52.006;4.374;2024-01-30T13:26:09;21.92;;;19.92;;
17177;SDS011;8704;52.006;4.374;2024-01-30T13:28:37;22.65;;;20.80;;
17177;SDS011;8704;52.006;4.374;2024-01-30T13:31:05;22.48;;;20.85;;
17177;SDS011;8704;52.006;4.374;2024-01-30T13:33:34;20.88;;;19.17;;
17177;SDS011;8704;52.006;4.374;2024-01-30T13:36:02;22.52;;;20.77;;
17177;SDS011;8704;52.006;4.374;2024-01-30T13:38:30;23.90;;;22.17;;
17177;SDS011;8704;52.006;4.374;2024-01-30T13:40:59;26.50;;;24.60;;
17177;SDS011;8704;52.006;4.374;2024-01-30T13:43:28;26.85;;;25.00;;
17177;SDS011;8704;52.006;4.374;2024-01-30T13:45:57;25.60;;;23.63;;
17177;SDS011;8704;52.006;4.374;2024-01-30T13:48:25;25.73;;;23.40;;
17177;SDS011;8704;52.006;4.374;2024-01-30T13:50:53;23.90;;;22.13;;
17177;SDS011;8704;52.006;4.374;2024-01-30T13:53:21;24.38;;;22.58;;
17177;SDS011;8704;52.006;4.374;2024-01-30T13:55:50;22.17;;;20.02;;
17177;SDS011;8704;52.006;4.374;2024-01-30T13:58:18;21.15;;;19.45;;
17177;SDS011;8704;52.006;4.374;2024-01-30T14:00:47;23.88;;;22.08;;
17177;SDS011;8704;52.006;4.374;2024-01-30T14:03:16;25.38;;;23.48;;
17177;SDS011;8704;52.006;4.374;2024-01-30T14:05:45;24.73;;;23.02;;
17177;SDS011;8704;52.006;4.374;2024-01-30T14:08:13;24.17;;;22.40;;
17177;SDS011;8704;52.006;4.374;2024-01-30T14:10:41;25.17;;;23.38;;
17177;SDS011;8704;52.006;4.374;2024-01-30T14:13:09;27.42;;;25.70;;
17177;SDS011;8704;52.006;4.374;2024-01-30T14:15:38;25.88;;;24.15;;
17177;SDS011;8704;52.006;4.374;2024-01-30T14:18:07;28.17;;;26.38;;
17177;SDS011;8704;52.006;4.374;2024-01-30T14:20:37;24.50;;;23.08;;
17177;SDS011;8704;52.006;4.374;2024-01-30T14:23:05;26.00;;;24.35;;
17177;SDS011;8704;52.006;4.374;2024-01-30T14:25:34;26.50;;;24.67;;
17177;SDS011;8704;52.006;4.374;2024-01-30T14:28:02;26.42;;;24.63;;
17177;SDS011;8704;52.006;4.374;2024-01-30T14:30:31;26.30;;;24.63;;
17177;SDS011;8704;52.006;4.374;2024-01-30T14:32:59;29.00;;;27.13;;
17177;SDS011;8704;52.006;4.374;2024-01-30T14:35:29;28.42;;;26.40;;
17177;SDS011;8704;52.006;4.374;2024-01-30T14:37:57;31.48;;;29.50;;
17177;SDS011;8704;52.006;4.374;2024-01-30T14:40:25;31.75;;;29.88;;
17177;SDS011;8704;52.006;4.374;2024-01-30T14:42:53;35.03;;;32.72;;
17177;SDS011;8704;52.006;4.374;2024-01-30T14:45:22;37.92;;;35.00;;
17177;SDS011;8704;52.006;4.374;2024-01-30T14:47:50;34.67;;;32.17;;